createdAt,value
2019-04-29T00:00:08.939Z,10.87
2019-04-29T00:02:38.410Z,10.10
2019-04-29T00:05:09.472Z,9.67
2019-04-29T00:07:39.114Z,19.27
2019-04-29T00:10:10.469Z,15.33
2019-04-29T00:12:40.105Z,10.60
2019-04-29T00:15:11.509Z,13.50
2019-04-29T00:17:42.571Z,10.60
2019-04-29T00:20:22.985Z,15.17
2019-04-29T00:22:52.342Z,12.00
2019-04-29T00:25:21.838Z,11.93
2019-04-29T00:27:51.340Z,12.73
2019-04-29T00:30:22.349Z,11.80
2019-04-29T00:32:51.884Z,11.70
2019-04-29T00:35:21.553Z,12.77
2019-04-29T00:37:55.386Z,15.43
2019-04-29T00:40:41.808Z,14.20
2019-04-29T00:46:08.020Z,12.00
2019-04-29T00:48:37.586Z,14.93
2019-04-29T00:51:07.276Z,15.40
2019-04-29T00:53:37.298Z,15.87
2019-04-29T00:56:06.730Z,14.37
2019-04-29T00:58:36.128Z,11.97
2019-04-29T01:01:10.258Z,11.40
2019-04-29T01:03:41.265Z,15.87
2019-04-29T01:06:10.899Z,13.57
2019-04-29T01:08:40.314Z,15.07
2019-04-29T01:11:09.954Z,15.53
2019-04-29T01:13:39.371Z,15.67
2019-04-29T01:16:08.845Z,16.43
2019-04-29T01:18:38.554Z,17.20
2019-04-29T01:21:08.026Z,14.57
2019-04-29T01:23:37.454Z,14.17
2019-04-29T01:26:25.472Z,13.57
2019-04-29T01:28:59.569Z,13.97
2019-04-29T01:31:30.851Z,17.73
2019-04-29T01:34:02.168Z,16.83
2019-04-29T01:36:39.541Z,17.80
2019-04-29T01:39:11.307Z,15.60
2019-04-29T01:41:59.066Z,16.80
2019-04-29T01:44:30.437Z,17.57
2019-04-29T01:46:59.845Z,17.90
2019-04-29T01:49:29.380Z,15.13
2019-04-29T01:51:58.779Z,17.20
2019-04-29T01:54:28.268Z,16.67
2019-04-29T01:56:57.666Z,14.20
2019-04-29T01:59:27.366Z,19.97
2019-04-29T02:01:56.777Z,15.03
2019-04-29T02:04:27.811Z,16.33
2019-04-29T02:06:57.316Z,15.50
2019-04-29T02:09:28.390Z,14.13
2019-04-29T02:11:57.839Z,17.27
2019-04-29T02:14:27.272Z,17.80
2019-04-29T02:16:56.707Z,19.70
2019-04-29T02:19:26.132Z,17.63
2019-04-29T02:22:12.156Z,18.93
2019-04-29T02:24:49.198Z,17.80
2019-04-29T02:27:18.639Z,18.57
2019-04-29T02:29:48.129Z,18.73
2019-04-29T02:32:19.103Z,21.80
2019-04-29T02:34:48.704Z,20.93
2019-04-29T02:37:19.758Z,16.07
2019-04-29T02:39:53.938Z,20.77
2019-04-29T02:42:39.779Z,18.23
2019-04-29T02:45:11.484Z,18.07
2019-04-29T02:47:41.116Z,21.53
2019-04-29T02:50:10.730Z,19.40
2019-04-29T02:52:40.165Z,27.97
2019-04-29T02:55:11.822Z,25.57
2019-04-29T02:57:44.461Z,27.43
2019-04-29T03:00:18.986Z,25.37
2019-04-29T03:02:50.194Z,24.47
2019-04-29T03:05:27.556Z,19.00
2019-04-29T03:07:57.090Z,15.93
2019-04-29T03:10:26.494Z,17.93
2019-04-29T03:12:55.954Z,17.27
2019-04-29T03:15:31.689Z,13.27
2019-04-29T03:18:01.706Z,10.80
2019-04-29T03:20:33.128Z,11.57
2019-04-29T03:23:10.646Z,38.40
2019-04-29T03:25:40.061Z,56.30
2019-04-29T03:28:09.653Z,20.90
2019-04-29T03:30:39.187Z,21.73
2019-04-29T03:33:09.092Z,18.73
2019-04-29T03:35:38.492Z,15.63
2019-04-29T03:38:08.004Z,17.43
2019-04-29T03:40:37.830Z,14.97
2019-04-29T03:43:07.241Z,13.97
2019-04-29T03:45:36.714Z,14.83
2019-04-29T03:48:06.405Z,12.07
2019-04-29T03:50:35.977Z,10.03
2019-04-29T03:53:05.392Z,7.70
2019-04-29T03:55:39.953Z,8.07
2019-04-29T03:58:06.162Z,8.00
2019-04-29T04:00:35.786Z,7.50
2019-04-29T04:03:09.568Z,7.33
2019-04-29T04:05:43.573Z,7.30
2019-04-29T04:11:00.439Z,7.70
2019-04-29T04:13:29.860Z,8.30
2019-04-29T04:15:59.464Z,9.53
2019-04-29T04:18:30.828Z,11.23
2019-04-29T04:21:00.269Z,23.33
2019-04-29T04:23:29.712Z,11.87
2019-04-29T04:25:59.157Z,9.90
2019-04-29T04:28:28.652Z,9.67
2019-04-29T04:30:58.145Z,8.60
2019-04-29T04:33:29.127Z,8.33
2019-04-29T04:35:58.572Z,8.13
2019-04-29T04:38:27.997Z,8.43
2019-04-29T04:40:59.607Z,8.73
2019-04-29T04:43:29.311Z,9.33
2019-04-29T04:45:59.040Z,8.37
2019-04-29T04:48:28.625Z,8.50
2019-04-29T04:50:58.062Z,8.50
2019-04-29T04:53:27.499Z,8.57
2019-04-29T04:56:02.098Z,9.00
2019-04-29T04:58:32.296Z,9.03
2019-04-29T05:01:01.744Z,9.63
2019-04-29T05:03:31.232Z,8.77
2019-04-29T05:06:00.739Z,7.20
2019-04-29T05:08:30.170Z,6.70
2019-04-29T05:10:59.810Z,6.40
2019-04-29T05:13:29.441Z,6.00
2019-04-29T05:15:58.866Z,5.23
2019-04-29T05:18:28.286Z,5.37
2019-04-29T05:20:57.689Z,4.90
2019-04-29T05:23:27.185Z,6.13
2019-04-29T05:25:56.594Z,6.83
2019-04-29T05:28:26.011Z,4.83
2019-04-29T05:30:55.403Z,4.67
2019-04-29T05:33:25.005Z,4.50
2019-04-29T05:36:03.723Z,4.80
2019-04-29T05:38:40.677Z,4.50
2019-04-29T05:41:10.345Z,4.40
2019-04-29T05:43:44.283Z,5.27
2019-04-29T05:46:30.174Z,4.70
2019-04-29T05:49:02.343Z,4.60
2019-04-29T05:51:32.775Z,4.30
2019-04-29T05:54:09.969Z,4.47
2019-04-29T05:56:39.551Z,4.60
2019-04-29T05:59:12.911Z,4.60
2019-04-29T06:01:42.855Z,4.37
2019-04-29T06:04:16.439Z,4.13
2019-04-29T06:06:43.934Z,4.00
2019-04-29T06:09:16.945Z,4.83
2019-04-29T06:11:44.635Z,5.53
2019-04-29T06:14:14.291Z,5.27
2019-04-29T06:16:43.973Z,5.30
2019-04-29T06:19:13.429Z,7.13
2019-04-29T06:21:42.980Z,6.60
2019-04-29T06:24:12.426Z,6.63
2019-04-29T06:26:43.761Z,5.60
2019-04-29T06:29:13.995Z,6.67
2019-04-29T06:31:43.486Z,6.83
2019-04-29T06:34:12.997Z,5.80
2019-04-29T06:36:42.429Z,6.07
2019-04-29T06:39:13.478Z,6.60
2019-04-29T06:41:45.088Z,6.23
2019-04-29T06:44:17.024Z,6.43
2019-04-29T06:46:50.184Z,7.47
2019-04-29T06:49:19.145Z,7.57
2019-04-29T06:51:48.542Z,7.93
2019-04-29T06:54:17.985Z,7.37
2019-04-29T06:56:47.393Z,7.50
2019-04-29T06:59:17.092Z,6.77
2019-04-29T07:01:48.011Z,6.80
2019-04-29T07:04:18.174Z,6.97
2019-04-29T07:06:57.247Z,7.37
2019-04-29T07:09:18.716Z,8.17
2019-04-29T07:11:48.122Z,9.43
2019-04-29T07:14:17.786Z,9.37
2019-04-29T07:16:47.330Z,9.53
2019-04-29T07:19:16.797Z,9.23
2019-04-29T07:21:47.083Z,9.40
2019-04-29T07:24:20.422Z,9.70
2019-04-29T07:26:50.025Z,10.23
2019-04-29T07:29:20.015Z,12.03
2019-04-29T07:31:49.766Z,10.23
2019-04-29T07:34:19.199Z,12.23
2019-04-29T07:36:48.624Z,11.83
2019-04-29T07:39:18.197Z,11.93
2019-04-29T07:41:49.489Z,13.33
2019-04-29T07:44:19.996Z,12.77
2019-04-29T07:47:02.084Z,10.80
2019-04-29T07:49:30.004Z,15.17
2019-04-29T07:51:59.417Z,11.90
2019-04-29T07:54:29.049Z,12.47
2019-04-29T07:56:58.458Z,13.20
2019-04-29T07:59:28.002Z,14.77
2019-04-29T08:01:59.901Z,15.83
2019-04-29T08:04:28.649Z,15.87
2019-04-29T08:06:58.415Z,18.13
2019-04-29T08:09:28.108Z,17.77
2019-04-29T08:11:58.676Z,18.30
2019-04-29T08:14:30.604Z,16.30
2019-04-29T08:17:00.009Z,17.17
2019-04-29T08:19:31.562Z,14.00
2019-04-29T08:22:01.255Z,14.90
2019-04-29T08:24:30.731Z,14.70
2019-04-29T08:27:00.365Z,13.87
2019-04-29T08:29:30.793Z,14.17
2019-04-29T08:32:02.507Z,16.77
2019-04-29T08:34:32.109Z,15.07
2019-04-29T08:37:03.079Z,15.97
2019-04-29T08:39:32.484Z,16.90
2019-04-29T08:42:08.719Z,18.17
2019-04-29T08:44:38.027Z,17.37
2019-04-29T08:47:18.249Z,18.53
2019-04-29T08:49:48.546Z,17.37
2019-04-29T08:52:18.023Z,17.30
2019-04-29T08:54:50.694Z,18.43
2019-04-29T08:57:19.467Z,18.83
2019-04-29T08:59:48.906Z,18.37
2019-04-29T09:02:33.101Z,17.23
2019-04-29T09:04:53.667Z,16.40
2019-04-29T09:07:22.166Z,15.30
2019-04-29T09:09:56.007Z,14.17
2019-04-29T09:12:29.022Z,13.40
2019-04-29T09:14:55.921Z,11.80
2019-04-29T09:17:25.367Z,11.43
2019-04-29T09:19:54.847Z,12.30
2019-04-29T09:22:26.021Z,10.70
2019-04-29T09:25:16.473Z,10.57
2019-04-29T09:27:46.483Z,10.53
2019-04-29T09:30:17.195Z,11.20
2019-04-29T09:32:46.702Z,10.17
2019-04-29T09:35:16.352Z,10.27
2019-04-29T09:37:45.786Z,10.90
2019-04-29T09:40:17.756Z,13.50
2019-04-29T09:42:57.020Z,12.27
2019-04-29T09:45:27.636Z,10.97
2019-04-29T09:48:02.358Z,11.37
2019-04-29T09:50:34.297Z,11.27
2019-04-29T09:53:03.078Z,11.60
2019-04-29T09:55:35.687Z,11.20
2019-04-29T09:58:03.841Z,10.90
2019-04-29T10:00:40.666Z,11.17
2019-04-29T10:03:27.303Z,10.60
2019-04-29T10:06:13.517Z,11.73
2019-04-29T10:08:42.964Z,11.00
2019-04-29T10:11:12.720Z,11.13
2019-04-29T10:13:42.164Z,11.00
2019-04-29T10:16:13.351Z,10.73
2019-04-29T10:18:47.371Z,9.83
2019-04-29T10:21:21.249Z,9.53
2019-04-29T10:23:49.378Z,9.77
2019-04-29T10:26:18.873Z,9.70
2019-04-29T10:29:02.350Z,9.10
2019-04-29T10:31:32.030Z,10.57
2019-04-29T10:34:01.462Z,10.83
2019-04-29T10:36:31.077Z,11.10
2019-04-29T10:39:03.177Z,9.37
2019-04-29T10:41:36.122Z,9.40
2019-04-29T10:44:14.547Z,9.53
2019-04-29T10:46:47.129Z,9.33
2019-04-29T10:49:18.393Z,11.00
2019-04-29T10:51:47.950Z,10.40
2019-04-29T10:54:17.442Z,8.63
2019-04-29T10:56:47.417Z,8.43
2019-04-29T10:59:17.057Z,9.40
2019-04-29T11:02:16.603Z,8.83
2019-04-29T11:04:48.058Z,8.50
2019-04-29T11:07:33.498Z,8.43
2019-04-29T11:10:25.192Z,9.03
2019-04-29T11:12:55.169Z,7.30
2019-04-29T11:15:29.384Z,8.07
2019-04-29T11:17:59.778Z,5.67
2019-04-29T11:20:29.461Z,6.00
2019-04-29T11:23:09.187Z,4.50
2019-04-29T11:25:42.572Z,3.93
2019-04-29T11:28:16.045Z,3.80
2019-04-29T11:30:43.473Z,4.10
2019-04-29T11:33:24.591Z,3.50
2019-04-29T11:36:03.976Z,3.20
2019-04-29T11:38:36.059Z,2.50
2019-04-29T11:41:04.156Z,2.53
2019-04-29T11:43:34.025Z,3.67
2019-04-29T11:46:03.864Z,3.70
2019-04-29T11:48:33.280Z,3.53
2019-04-29T11:51:13.736Z,4.30
2019-04-29T11:53:45.054Z,4.20
2019-04-29T11:56:14.565Z,4.53
2019-04-29T11:58:46.501Z,8.70
2019-04-29T12:01:38.820Z,5.30
2019-04-29T12:04:19.589Z,4.70
2019-04-29T12:06:51.181Z,6.37
2019-04-29T12:09:20.748Z,5.50
2019-04-29T12:11:50.420Z,5.17
2019-04-29T12:14:24.933Z,5.90
2019-04-29T12:16:59.522Z,6.00
2019-04-29T12:19:38.995Z,5.57
2019-04-29T12:22:09.285Z,6.90
2019-04-29T12:24:39.710Z,6.57
2019-04-29T12:27:14.854Z,7.53
2019-04-29T12:29:42.046Z,6.73
2019-04-29T12:32:13.250Z,7.23
2019-04-29T12:34:47.372Z,8.50
2019-04-29T12:37:18.691Z,7.70
2019-04-29T12:39:56.067Z,8.33
2019-04-29T12:42:43.269Z,7.80
2019-04-29T12:45:19.410Z,7.73
2019-04-29T12:47:48.805Z,8.90
2019-04-29T12:50:21.771Z,9.87
2019-04-29T12:52:49.722Z,12.40
2019-04-29T12:55:39.300Z,13.93
2019-04-29T12:57:51.955Z,14.60
2019-04-29T13:00:23.482Z,13.50
2019-04-29T13:05:58.250Z,12.97
2019-04-29T13:08:25.491Z,13.93
2019-04-29T13:10:56.595Z,14.87
2019-04-29T13:13:26.091Z,15.67
2019-04-29T13:16:06.357Z,15.30
2019-04-29T13:18:55.722Z,16.13
2019-04-29T13:21:25.406Z,17.97
2019-04-29T13:24:12.186Z,19.20
2019-04-29T13:26:28.763Z,19.00
2019-04-29T13:29:01.115Z,18.53
2019-04-29T13:31:38.007Z,19.17
2019-04-29T13:34:14.717Z,20.10
2019-04-29T13:36:32.739Z,20.73
2019-04-29T13:39:02.250Z,19.33
2019-04-29T13:41:31.756Z,20.73
2019-04-29T13:44:05.792Z,22.13
2019-04-29T13:46:41.019Z,22.30
2019-04-29T13:49:21.088Z,23.37
2019-04-29T13:51:52.288Z,24.43
2019-04-29T13:54:21.917Z,24.87
2019-04-29T13:56:57.070Z,26.63
2019-04-29T13:59:49.047Z,28.10
2019-04-29T14:02:31.346Z,30.17
2019-04-29T14:05:00.195Z,31.57
2019-04-29T14:07:29.444Z,32.00
2019-04-29T14:09:58.862Z,31.30
2019-04-29T14:15:00.293Z,25.47
2019-04-29T14:17:31.735Z,26.87
2019-04-29T14:20:01.187Z,30.93
2019-04-29T14:22:30.801Z,27.40
2019-04-29T14:25:01.730Z,29.13
2019-04-29T14:27:31.158Z,28.17
2019-04-29T14:30:02.941Z,27.87
2019-04-29T14:32:34.797Z,28.40
2019-04-29T14:35:07.187Z,29.70
2019-04-29T14:37:35.751Z,25.13
2019-04-29T14:40:09.233Z,29.40
2019-04-29T14:42:58.082Z,27.67
2019-04-29T14:45:43.603Z,30.80
2019-04-29T14:48:14.757Z,27.43
2019-04-29T14:50:49.560Z,26.83
2019-04-29T14:53:19.507Z,27.83
2019-04-29T14:55:48.360Z,27.80
2019-04-29T14:58:19.410Z,28.73
2019-04-29T15:00:51.113Z,26.07
2019-04-29T15:03:22.454Z,25.80
2019-04-29T15:05:52.000Z,27.97
2019-04-29T15:08:23.262Z,27.13
2019-04-29T15:10:54.068Z,26.07
2019-04-29T15:13:24.808Z,27.30
2019-04-29T15:16:09.628Z,28.77
2019-04-29T15:18:49.027Z,28.80
2019-04-29T15:21:33.286Z,29.03
2019-04-29T15:24:03.013Z,31.93
2019-04-29T15:26:32.649Z,34.87
2019-04-29T15:29:02.163Z,30.80
2019-04-29T15:31:31.622Z,28.70
2019-04-29T15:34:01.129Z,24.53
2019-04-29T15:36:34.537Z,21.97
2019-04-29T15:39:09.848Z,19.93
2019-04-29T15:41:33.546Z,19.80
2019-04-29T15:44:07.427Z,18.60
2019-04-29T15:46:46.116Z,17.60
2019-04-29T15:49:05.868Z,17.57
2019-04-29T15:51:35.281Z,17.17
2019-04-29T15:54:09.354Z,16.87
2019-04-29T15:56:38.630Z,15.47
2019-04-29T15:59:08.962Z,15.30
2019-04-29T16:01:41.345Z,15.00
2019-04-29T16:04:12.666Z,15.60
2019-04-29T16:06:45.254Z,16.53
2019-04-29T16:09:30.456Z,15.03
2019-04-29T16:12:17.700Z,15.87
2019-04-29T16:14:49.179Z,13.80
2019-04-29T16:17:20.608Z,14.87
2019-04-29T16:19:49.611Z,15.20
2019-04-29T16:22:20.026Z,14.70
2019-04-29T16:24:49.814Z,14.97
2019-04-29T16:27:19.270Z,15.50
2019-04-29T16:29:51.598Z,15.33
2019-04-29T16:32:33.584Z,13.63
2019-04-29T16:35:03.110Z,16.23
2019-04-29T16:37:33.379Z,17.10
2019-04-29T16:40:02.946Z,15.23
2019-04-29T16:42:49.083Z,15.10
2019-04-29T16:45:19.176Z,15.57
2019-04-29T16:47:48.800Z,15.50
2019-04-29T16:50:18.216Z,16.20
2019-04-29T16:52:47.632Z,20.13
2019-04-29T16:55:17.217Z,14.97
2019-04-29T16:57:46.649Z,16.13
2019-04-29T17:00:18.060Z,14.63
2019-04-29T17:02:47.617Z,15.30
2019-04-29T17:05:17.249Z,22.47
2019-04-29T17:07:46.756Z,20.90
2019-04-29T17:10:24.883Z,17.90
2019-04-29T17:12:54.447Z,22.83
2019-04-29T17:15:26.068Z,19.60
2019-04-29T17:17:55.755Z,17.13
2019-04-29T17:20:25.648Z,17.37
2019-04-29T17:22:55.131Z,15.23
2019-04-29T17:25:24.745Z,16.23
2019-04-29T17:27:58.516Z,24.13
2019-04-29T17:30:46.693Z,15.13
2019-04-29T17:33:26.223Z,13.70
2019-04-29T17:35:47.790Z,15.17
2019-04-29T17:38:17.815Z,14.20
2019-04-29T17:40:51.112Z,14.37
2019-04-29T17:43:21.406Z,13.63
2019-04-29T17:46:08.840Z,16.37
2019-04-29T17:48:39.976Z,13.20
2019-04-29T17:51:11.325Z,14.00
2019-04-29T17:53:46.025Z,11.50
2019-04-29T17:56:17.266Z,12.40
2019-04-29T17:58:53.869Z,12.67
2019-04-29T18:01:43.303Z,12.47
2019-04-29T18:04:22.338Z,15.80
2019-04-29T18:07:08.295Z,13.13
2019-04-29T18:09:29.683Z,12.37
2019-04-29T18:12:00.196Z,11.17
2019-04-29T18:14:36.532Z,11.27
2019-04-29T18:17:00.920Z,10.87
2019-04-29T18:19:34.856Z,10.90
2019-04-29T18:22:07.863Z,12.53
2019-04-29T18:24:55.465Z,11.37
2019-04-29T18:27:29.284Z,12.37
2019-04-29T18:29:58.815Z,13.47
2019-04-29T18:32:35.596Z,15.70
2019-04-29T18:35:01.842Z,21.33
2019-04-29T18:37:36.951Z,30.43
2019-04-29T18:40:03.579Z,34.07
2019-04-29T18:42:33.129Z,48.03
2019-04-29T18:45:05.006Z,25.30
2019-04-29T18:47:36.434Z,24.07
2019-04-29T18:50:08.764Z,37.83
2019-04-29T18:52:38.191Z,26.50
2019-04-29T18:55:09.134Z,20.97
2019-04-29T18:57:38.556Z,24.03
2019-04-29T19:00:11.995Z,24.93
2019-04-29T19:02:45.366Z,21.27
2019-04-29T19:05:18.601Z,20.50
2019-04-29T19:07:55.140Z,22.40
2019-04-29T19:10:32.000Z,21.17
2019-04-29T19:12:59.761Z,20.40
2019-04-29T19:15:25.614Z,22.97
2019-04-29T19:18:01.339Z,21.47
2019-04-29T19:20:26.528Z,22.07
2019-04-29T19:23:05.884Z,22.83
2019-04-29T19:25:27.287Z,25.00
2019-04-29T19:27:56.772Z,24.33
2019-04-29T19:30:29.097Z,24.97
2019-04-29T19:33:00.346Z,20.97
2019-04-29T19:35:29.505Z,21.40
2019-04-29T19:38:00.025Z,22.87
2019-04-29T19:40:30.502Z,24.00
2019-04-29T19:43:00.667Z,24.60
2019-04-29T19:45:30.168Z,25.57
2019-04-29T19:48:00.408Z,27.13
2019-04-29T19:50:29.877Z,25.73
2019-04-29T19:53:00.771Z,24.07
2019-04-29T19:55:33.142Z,27.03
2019-04-29T19:58:02.208Z,28.57
2019-04-29T20:00:32.432Z,29.93
2019-04-29T20:03:02.741Z,32.50
2019-04-29T20:05:39.691Z,30.07
2019-04-29T20:08:08.529Z,27.07
2019-04-29T20:10:46.312Z,28.90
2019-04-29T20:13:11.035Z,28.00
2019-04-29T20:15:51.647Z,29.40
2019-04-29T20:18:41.984Z,28.63
2019-04-29T20:21:25.082Z,29.37
2019-04-29T20:23:53.247Z,28.07
2019-04-29T20:26:28.970Z,27.77
2019-04-29T20:28:55.680Z,30.47
2019-04-29T20:31:26.229Z,29.07
2019-04-29T20:33:58.604Z,39.57
2019-04-29T20:36:38.361Z,35.13
2019-04-29T20:39:00.061Z,32.67
2019-04-29T20:41:40.602Z,36.90
2019-04-29T20:44:05.767Z,32.87
2019-04-29T20:46:44.660Z,35.70
2019-04-29T20:49:05.716Z,33.20
2019-04-29T20:51:48.798Z,34.80
2019-04-29T20:54:15.850Z,36.80
2019-04-29T20:56:41.805Z,39.57
2019-04-29T20:59:12.986Z,41.93
2019-04-29T21:01:47.160Z,42.53
2019-04-29T21:04:30.594Z,44.63
2019-04-29T21:06:59.835Z,42.97
2019-04-29T21:09:22.061Z,43.57
2019-04-29T21:12:09.986Z,43.47
2019-04-29T21:14:46.815Z,46.80
2019-04-29T21:17:27.967Z,43.83
2019-04-29T21:19:49.172Z,49.27
2019-04-29T21:22:23.465Z,48.67
2019-04-29T21:24:53.842Z,38.10
2019-04-29T21:27:22.483Z,39.07
2019-04-29T21:29:54.032Z,39.20
2019-04-29T21:32:25.594Z,43.80
2019-04-29T21:34:56.387Z,42.40
2019-04-29T21:37:30.400Z,45.57
2019-04-29T21:40:01.485Z,41.03
2019-04-29T21:42:35.285Z,40.73
2019-04-29T21:45:08.763Z,36.13
2019-04-29T21:47:44.822Z,43.77
2019-04-29T21:50:10.452Z,39.70
2019-04-29T21:52:39.857Z,44.33
2019-04-29T21:55:09.759Z,38.43
2019-04-29T21:57:39.158Z,38.77
2019-04-29T22:00:11.703Z,41.07
2019-04-29T22:02:45.506Z,44.17
2019-04-29T22:05:14.754Z,42.20
2019-04-29T22:07:47.385Z,35.87
2019-04-29T22:10:19.821Z,36.97
2019-04-29T22:12:50.849Z,35.90
2019-04-29T22:15:30.696Z,39.27
2019-04-29T22:17:58.485Z,35.53
2019-04-29T22:20:26.536Z,31.40
2019-04-29T22:22:56.127Z,34.17
2019-04-29T22:25:27.099Z,31.87
2019-04-29T22:27:57.106Z,29.80
2019-04-29T22:30:26.676Z,33.90
2019-04-29T22:32:58.773Z,32.13
2019-04-29T22:35:28.096Z,33.23
2019-04-29T22:37:59.308Z,34.37
2019-04-29T22:40:28.743Z,37.17
2019-04-29T22:43:17.825Z,34.33
2019-04-29T22:45:47.334Z,31.07
2019-04-29T22:48:19.540Z,27.73
2019-04-29T22:50:47.885Z,28.43
2019-04-29T22:53:17.336Z,32.20
2019-04-29T22:55:46.782Z,30.23
2019-04-29T22:58:16.217Z,34.80
2019-04-29T23:00:45.676Z,42.73
2019-04-29T23:03:15.183Z,39.30
2019-04-29T23:05:46.160Z,41.30
2019-04-29T23:08:15.763Z,39.10
2019-04-29T23:10:45.641Z,33.97
2019-04-29T23:13:15.353Z,39.23
2019-04-29T23:15:45.770Z,37.30
2019-04-29T23:18:24.744Z,34.63
2019-04-29T23:21:04.006Z,31.80
2019-04-29T23:23:40.477Z,29.77
2019-04-29T23:26:10.018Z,28.93
2019-04-29T23:28:40.990Z,28.23
2019-04-29T23:31:10.395Z,26.37
2019-04-29T23:33:40.129Z,27.53
2019-04-29T23:36:13.648Z,31.00
2019-04-29T23:38:42.751Z,30.27
2019-04-29T23:41:12.529Z,29.77
2019-04-29T23:43:41.995Z,29.87
2019-04-29T23:46:11.683Z,34.80
2019-04-29T23:48:41.093Z,31.73
2019-04-29T23:51:10.667Z,31.63
2019-04-29T23:53:40.144Z,32.47
2019-04-29T23:56:09.953Z,29.20
2019-04-29T23:58:42.560Z,34.63
